MQT583 EDDM-LSZH
Flight info
| Callsign | MQT583 |
|---|---|
| Flight time | 0h 39m |
| Altitude | 22000 |
| Route | MERSI4E/08R MERSI Y100 MOMUK Y112 RAVED L856 NEGRA |
| Aircraft | B738/M-SDE2E3FGHIRWXY/LB1 |
Departure
| Time | 2026-05-01 13:15 |
|---|---|
| Airport | Munich Airport (EDDM) |
Arrival
| Time | 2026-05-01 13:54 |
|---|---|
| Airport | Zürich Airport (LSZH) |
| Time | Latitude | Longitude | Altitude | Speed | Heading |
|---|---|---|---|---|---|
| 2026-05-01 12:39 | 48.35222 | 11.77702 | 1477 ft | 0 kts | 264° |
| 2026-05-01 13:07 | 48.35190 | 11.77783 | 1470 ft | 0 kts | 353° |
| 2026-05-01 13:07 | 48.35191 | 11.77785 | 1470 ft | 1 kts | 14° |
| 2026-05-01 13:08 | 48.35184 | 11.77832 | 1473 ft | 6 kts | 124° |
| 2026-05-01 13:08 | 48.35150 | 11.77851 | 1485 ft | 5 kts | 170° |
| 2026-05-01 13:08 | 48.35116 | 11.77857 | 1485 ft | 5 kts | 177° |
| 2026-05-01 13:08 | 48.35062 | 11.77868 | 1480 ft | 10 kts | 173° |
| 2026-05-01 13:09 | 48.34987 | 11.77882 | 1479 ft | 11 kts | 174° |
| 2026-05-01 13:09 | 48.34910 | 11.77895 | 1485 ft | 11 kts | 178° |
| 2026-05-01 13:09 | 48.34840 | 11.77878 | 1482 ft | 10 kts | 189° |
| 2026-05-01 13:09 | 48.34775 | 11.77884 | 1485 ft | 9 kts | 171° |
| 2026-05-01 13:10 | 48.34711 | 11.77895 | 1485 ft | 9 kts | 171° |
| 2026-05-01 13:10 | 48.34663 | 11.77861 | 1475 ft | 8 kts | 246° |
| 2026-05-01 13:10 | 48.34655 | 11.77782 | 1485 ft | 8 kts | 264° |
| 2026-05-01 13:10 | 48.34646 | 11.77692 | 1485 ft | 10 kts | 263° |
| 2026-05-01 13:11 | 48.34637 | 11.77582 | 1473 ft | 12 kts | 264° |
| 2026-05-01 13:11 | 48.34632 | 11.77442 | 1480 ft | 15 kts | 258° |
| 2026-05-01 13:11 | 48.34613 | 11.77273 | 1485 ft | 18 kts | 263° |
| 2026-05-01 13:11 | 48.34600 | 11.77076 | 1485 ft | 20 kts | 263° |
| 2026-05-01 13:12 | 48.34582 | 11.76857 | 1481 ft | 22 kts | 266° |
| 2026-05-01 13:12 | 48.34535 | 11.76695 | 1485 ft | 18 kts | 191° |
| 2026-05-01 13:12 | 48.34412 | 11.76754 | 1479 ft | 20 kts | 134° |
| 2026-05-01 13:12 | 48.34365 | 11.76889 | 1482 ft | 13 kts | 112° |
| 2026-05-01 13:13 | 48.34335 | 11.77002 | 1473 ft | 2 kts | 111° |
| 2026-05-01 13:13 | 48.34314 | 11.77056 | 1476 ft | 16 kts | 116° |
| 2026-05-01 13:13 | 48.34262 | 11.77259 | 1479 ft | 19 kts | 108° |
| 2026-05-01 13:13 | 48.34247 | 11.77393 | 1485 ft | 0 kts | 88° |
| 2026-05-01 13:14 | 48.34263 | 11.77656 | 1480 ft | 66 kts | 83° |
| 2026-05-01 13:14 | 48.34350 | 11.78767 | 1482 ft | 146 kts | 82° |
| 2026-05-01 13:15 | 48.34436 | 11.80457 | 2041 ft | 166 kts | 96° |
| 2026-05-01 13:15 | 48.34097 | 11.82101 | 3014 ft | 163 kts | 118° |
| 2026-05-01 13:15 | 48.33675 | 11.83599 | 3958 ft | 157 kts | 107° |
| 2026-05-01 13:15 | 48.33463 | 11.85325 | 4211 ft | 174 kts | 90° |
| 2026-05-01 13:16 | 48.33589 | 11.87171 | 4016 ft | 189 kts | 81° |
| 2026-05-01 13:16 | 48.33829 | 11.89179 | 4226 ft | 197 kts | 78° |
| 2026-05-01 13:16 | 48.34108 | 11.91113 | 5221 ft | 178 kts | 78° |
| 2026-05-01 13:17 | 48.34004 | 11.97358 | 6039 ft | 223 kts | 126° |
| 2026-05-01 13:17 | 48.32906 | 11.98682 | 6753 ft | 194 kts | 144° |
| 2026-05-01 13:18 | 48.30549 | 12.01350 | 7806 ft | 226 kts | 146° |
| 2026-05-01 13:18 | 48.29095 | 12.02381 | 8359 ft | 241 kts | 166° |
| 2026-05-01 13:18 | 48.27369 | 12.02679 | 8921 ft | 259 kts | 184° |
| 2026-05-01 13:18 | 48.25496 | 12.02554 | 9464 ft | 278 kts | 182° |
| 2026-05-01 13:19 | 48.23513 | 12.02431 | 10041 ft | 288 kts | 182° |
| 2026-05-01 13:19 | 48.21512 | 12.02313 | 10751 ft | 290 kts | 182° |
| 2026-05-01 13:19 | 48.17354 | 12.02074 | 12208 ft | 306 kts | 182° |
| 2026-05-01 13:20 | 48.15217 | 12.01950 | 12932 ft | 310 kts | 182° |
| 2026-05-01 13:20 | 48.13047 | 12.01824 | 13668 ft | 313 kts | 182° |
| 2026-05-01 13:20 | 48.10863 | 12.01682 | 14391 ft | 316 kts | 185° |
| 2026-05-01 13:21 | 48.07102 | 11.98690 | 15866 ft | 318 kts | 233° |
| 2026-05-01 13:21 | 48.06128 | 11.95730 | 16624 ft | 320 kts | 255° |
| 2026-05-01 13:21 | 48.05553 | 11.92501 | 17349 ft | 323 kts | 256° |
| 2026-05-01 13:21 | 48.05026 | 11.89218 | 18076 ft | 326 kts | 257° |
| 2026-05-01 13:22 | 48.04502 | 11.85908 | 18804 ft | 328 kts | 256° |
| 2026-05-01 13:22 | 48.03957 | 11.82592 | 19533 ft | 329 kts | 256° |
| 2026-05-01 13:22 | 48.03391 | 11.79262 | 20258 ft | 330 kts | 256° |
| 2026-05-01 13:22 | 48.02817 | 11.75937 | 20976 ft | 331 kts | 256° |
| 2026-05-01 13:23 | 48.02246 | 11.72609 | 21701 ft | 331 kts | 256° |
| 2026-05-01 13:23 | 48.01669 | 11.69212 | 21994 ft | 346 kts | 256° |
| 2026-05-01 13:23 | 48.01190 | 11.65644 | 22005 ft | 351 kts | 265° |
| 2026-05-01 13:23 | 48.01010 | 11.62033 | 22015 ft | 347 kts | 266° |
| 2026-05-01 13:24 | 48.00844 | 11.58473 | 22013 ft | 349 kts | 266° |
| 2026-05-01 13:24 | 48.00681 | 11.54849 | 22012 ft | 348 kts | 266° |
| 2026-05-01 13:24 | 48.00518 | 11.51236 | 22012 ft | 348 kts | 266° |
| 2026-05-01 13:25 | 48.00177 | 11.44009 | 22019 ft | 348 kts | 266° |
| 2026-05-01 13:25 | 48.00007 | 11.40449 | 22017 ft | 348 kts | 266° |
| 2026-05-01 13:25 | 47.99833 | 11.36843 | 22016 ft | 348 kts | 266° |
| 2026-05-01 13:25 | 47.99659 | 11.33220 | 22018 ft | 348 kts | 266° |
| 2026-05-01 13:26 | 47.99484 | 11.29617 | 22015 ft | 348 kts | 266° |
| 2026-05-01 13:26 | 47.99309 | 11.26011 | 22015 ft | 348 kts | 266° |
| 2026-05-01 13:26 | 47.99131 | 11.22399 | 22015 ft | 348 kts | 266° |
| 2026-05-01 13:26 | 47.98953 | 11.18801 | 22016 ft | 348 kts | 266° |
| 2026-05-01 13:27 | 47.98774 | 11.15227 | 22016 ft | 348 kts | 265° |
| 2026-05-01 13:27 | 47.98592 | 11.11625 | 22014 ft | 347 kts | 265° |
| 2026-05-01 13:27 | 47.98195 | 11.04433 | 22007 ft | 348 kts | 260° |
| 2026-05-01 13:28 | 47.97013 | 10.97419 | 22019 ft | 349 kts | 255° |
| 2026-05-01 13:28 | 47.96381 | 10.93931 | 22018 ft | 348 kts | 255° |
| 2026-05-01 13:29 | 47.95099 | 10.86858 | 22023 ft | 365 kts | 255° |
| 2026-05-01 13:29 | 47.93728 | 10.79247 | 22023 ft | 394 kts | 255° |
| 2026-05-01 13:30 | 47.90849 | 10.63393 | 23570 ft | 396 kts | 255° |
| 2026-05-01 13:31 | 47.89398 | 10.55472 | 24371 ft | 396 kts | 255° |
| 2026-05-01 13:31 | 47.87185 | 10.43451 | 25108 ft | 413 kts | 255° |
| 2026-05-01 13:32 | 47.85629 | 10.35026 | 25589 ft | 430 kts | 256° |
| 2026-05-01 13:33 | 47.84772 | 10.21460 | 26355 ft | 447 kts | 266° |
| 2026-05-01 13:33 | 47.84389 | 10.12027 | 25993 ft | 466 kts | 266° |
| 2026-05-01 13:34 | 47.83941 | 10.02571 | 24912 ft | 453 kts | 261° |
| 2026-05-01 13:34 | 47.81918 | 9.93851 | 23882 ft | 448 kts | 244° |
| 2026-05-01 13:35 | 47.79137 | 9.85458 | 22843 ft | 459 kts | 243° |
| 2026-05-01 13:35 | 47.77705 | 9.81214 | 22319 ft | 456 kts | 243° |
| 2026-05-01 13:35 | 47.74881 | 9.72819 | 21273 ft | 460 kts | 244° |
| 2026-05-01 13:36 | 47.73598 | 9.68488 | 20796 ft | 452 kts | 252° |
| 2026-05-01 13:36 | 47.72904 | 9.64002 | 20270 ft | 438 kts | 263° |
| 2026-05-01 13:36 | 47.72578 | 9.55400 | 19228 ft | 400 kts | 267° |
| 2026-05-01 13:37 | 47.72464 | 9.51325 | 18698 ft | 392 kts | 268° |
| 2026-05-01 13:37 | 47.72390 | 9.48648 | 18358 ft | 392 kts | 266° |
| 2026-05-01 13:37 | 47.71657 | 9.43371 | 17667 ft | 391 kts | 250° |
| 2026-05-01 13:37 | 47.70471 | 9.39744 | 17157 ft | 392 kts | 238° |
| 2026-05-01 13:38 | 47.67693 | 9.34438 | 16273 ft | 391 kts | 231° |
| 2026-05-01 13:38 | 47.65972 | 9.31316 | 15724 ft | 390 kts | 231° |
| 2026-05-01 13:38 | 47.64256 | 9.28212 | 15171 ft | 389 kts | 231° |
| 2026-05-01 13:39 | 47.62548 | 9.25115 | 14624 ft | 386 kts | 231° |
| 2026-05-01 13:39 | 47.60398 | 9.20999 | 13891 ft | 373 kts | 238° |
| 2026-05-01 13:39 | 47.59587 | 9.18737 | 13526 ft | 362 kts | 246° |
| 2026-05-01 13:39 | 47.58832 | 9.15308 | 12990 ft | 348 kts | 258° |
| 2026-05-01 13:40 | 47.58393 | 9.11850 | 12440 ft | 336 kts | 259° |
| 2026-05-01 13:40 | 47.57975 | 9.08504 | 11885 ft | 325 kts | 259° |
| 2026-05-01 13:40 | 47.57779 | 9.05231 | 11336 ft | 314 kts | 271° |
| 2026-05-01 13:40 | 47.58023 | 9.02064 | 10796 ft | 306 kts | 282° |
| 2026-05-01 13:41 | 47.58661 | 8.99107 | 10253 ft | 298 kts | 292° |
| 2026-05-01 13:41 | 47.59430 | 8.96294 | 9708 ft | 292 kts | 291° |
| 2026-05-01 13:41 | 47.60192 | 8.93490 | 9268 ft | 293 kts | 292° |
| 2026-05-01 13:41 | 47.60952 | 8.90694 | 8868 ft | 292 kts | 292° |
| 2026-05-01 13:42 | 47.61709 | 8.87915 | 8570 ft | 288 kts | 291° |
| 2026-05-01 13:42 | 47.62439 | 8.85187 | 8316 ft | 282 kts | 288° |
| 2026-05-01 13:42 | 47.62847 | 8.82364 | 8072 ft | 280 kts | 275° |
| 2026-05-01 13:42 | 47.62837 | 8.79496 | 7832 ft | 277 kts | 263° |
| 2026-05-01 13:43 | 47.62418 | 8.76715 | 7605 ft | 276 kts | 251° |
| 2026-05-01 13:43 | 47.61697 | 8.74080 | 7359 ft | 276 kts | 247° |
| 2026-05-01 13:43 | 47.60956 | 8.71463 | 7120 ft | 274 kts | 247° |
| 2026-05-01 13:43 | 47.60222 | 8.68865 | 6948 ft | 275 kts | 247° |
| 2026-05-01 13:44 | 47.59475 | 8.66198 | 6604 ft | 284 kts | 250° |
| 2026-05-01 13:44 | 47.59087 | 8.63329 | 6265 ft | 285 kts | 268° |
| 2026-05-01 13:44 | 47.59313 | 8.60488 | 6056 ft | 277 kts | 285° |
| 2026-05-01 13:44 | 47.60083 | 8.57911 | 5846 ft | 271 kts | 303° |
| 2026-05-01 13:45 | 47.61286 | 8.55845 | 5831 ft | 269 kts | 317° |
| 2026-05-01 13:45 | 47.62662 | 8.53929 | 5534 ft | 277 kts | 316° |
| 2026-05-01 13:45 | 47.64058 | 8.52025 | 5588 ft | 269 kts | 317° |
| 2026-05-01 13:45 | 47.65442 | 8.50150 | 5607 ft | 271 kts | 317° |
| 2026-05-01 13:46 | 47.66835 | 8.48253 | 5611 ft | 271 kts | 317° |
| 2026-05-01 13:46 | 47.68224 | 8.46350 | 5616 ft | 271 kts | 317° |
| 2026-05-01 13:46 | 47.69607 | 8.44448 | 5619 ft | 271 kts | 317° |
| 2026-05-01 13:46 | 47.70991 | 8.42542 | 5626 ft | 272 kts | 317° |
| 2026-05-01 13:47 | 47.72360 | 8.40657 | 5630 ft | 272 kts | 317° |
| 2026-05-01 13:47 | 47.73687 | 8.38664 | 5626 ft | 272 kts | 303° |
| 2026-05-01 13:47 | 47.74266 | 8.36025 | 5643 ft | 272 kts | 269° |
| 2026-05-01 13:47 | 47.73762 | 8.33345 | 5651 ft | 274 kts | 237° |
| 2026-05-01 13:48 | 47.72571 | 8.31134 | 5637 ft | 274 kts | 227° |
| 2026-05-01 13:48 | 47.71133 | 8.29292 | 5640 ft | 274 kts | 208° |
| 2026-05-01 13:48 | 47.69319 | 8.28562 | 5628 ft | 270 kts | 180° |
| 2026-05-01 13:48 | 47.67592 | 8.29200 | 5627 ft | 248 kts | 150° |
| 2026-05-01 13:49 | 47.66181 | 8.30479 | 5635 ft | 228 kts | 148° |
| 2026-05-01 13:49 | 47.64893 | 8.31663 | 5623 ft | 210 kts | 149° |
| 2026-05-01 13:49 | 47.63689 | 8.32770 | 5577 ft | 201 kts | 149° |
| 2026-05-01 13:49 | 47.62541 | 8.33990 | 5196 ft | 201 kts | 142° |
| 2026-05-01 13:50 | 47.61497 | 8.35328 | 4918 ft | 195 kts | 138° |
| 2026-05-01 13:50 | 47.60504 | 8.36681 | 4650 ft | 194 kts | 137° |
| 2026-05-01 13:50 | 47.59505 | 8.38055 | 4369 ft | 196 kts | 137° |
| 2026-05-01 13:50 | 47.58522 | 8.39411 | 4129 ft | 192 kts | 137° |
| 2026-05-01 13:51 | 47.57547 | 8.40754 | 3888 ft | 190 kts | 137° |
| 2026-05-01 13:51 | 47.56587 | 8.42080 | 3623 ft | 185 kts | 137° |
| 2026-05-01 13:51 | 47.55680 | 8.43329 | 3410 ft | 172 kts | 137° |
| 2026-05-01 13:51 | 47.54821 | 8.44511 | 3177 ft | 164 kts | 137° |
| 2026-05-01 13:52 | 47.54018 | 8.45617 | 2957 ft | 157 kts | 137° |
| 2026-05-01 13:52 | 47.53228 | 8.46704 | 2735 ft | 153 kts | 137° |
| 2026-05-01 13:52 | 47.52452 | 8.47771 | 2553 ft | 153 kts | 138° |
| 2026-05-01 13:52 | 47.51675 | 8.48839 | 2344 ft | 151 kts | 138° |
| 2026-05-01 13:53 | 47.50909 | 8.49900 | 2150 ft | 150 kts | 137° |
| 2026-05-01 13:53 | 47.49353 | 8.52009 | 1736 ft | 151 kts | 134° |
| 2026-05-01 13:53 | 47.48598 | 8.53066 | 1534 ft | 148 kts | 137° |
| 2026-05-01 13:54 | 47.47847 | 8.54104 | 1412 ft | 145 kts | 137° |
| 2026-05-01 13:54 | 47.47263 | 8.54905 | 1384 ft | 69 kts | 137° |
| 2026-05-01 13:54 | 47.46964 | 8.55310 | 1388 ft | 57 kts | 136° |
| 2026-05-01 13:54 | 47.46721 | 8.55608 | 1396 ft | 37 kts | 154° |
| 2026-05-01 13:55 | 47.46557 | 8.55691 | 1395 ft | 20 kts | 166° |
| 2026-05-01 13:55 | 47.46431 | 8.55734 | 1396 ft | 14 kts | 165° |
| 2026-05-01 13:55 | 47.46343 | 8.55810 | 1403 ft | 15 kts | 141° |
| 2026-05-01 13:55 | 47.46272 | 8.55892 | 1403 ft | 10 kts | 169° |
| 2026-05-01 13:56 | 47.46232 | 8.55827 | 1405 ft | 12 kts | 265° |
| 2026-05-01 13:56 | 47.46238 | 8.55710 | 1400 ft | 7 kts | 257° |
| 2026-05-01 13:56 | 47.46216 | 8.55696 | 1400 ft | 3 kts | 195° |
| 2026-05-01 13:56 | 47.46189 | 8.55689 | 1401 ft | 5 kts | 186° |
| 2026-05-01 13:57 | 47.46162 | 8.55684 | 1401 ft | 3 kts | 186° |
| 2026-05-01 13:57 | 47.46156 | 8.55683 | 1401 ft | 0 kts | 185° |